sensor_id;sensor_type;location;lat;lon;timestamp;P1;durP1;ratioP1;P2;durP2;ratioP2
34565;SDS011;20803;42.676;26.348;2022-07-10T00:01:32;7.20;;;6.60;;
34565;SDS011;20803;42.676;26.348;2022-07-10T00:03:57;8.13;;;6.73;;
34565;SDS011;20803;42.676;26.348;2022-07-10T00:06:23;9.20;;;6.77;;
34565;SDS011;20803;42.676;26.348;2022-07-10T00:08:48;7.00;;;6.23;;
34565;SDS011;20803;42.676;26.348;2022-07-10T00:11:14;7.20;;;6.50;;
34565;SDS011;20803;42.676;26.348;2022-07-10T00:13:39;7.30;;;6.40;;
34565;SDS011;20803;42.676;26.348;2022-07-10T00:16:04;12.20;;;7.03;;
34565;SDS011;20803;42.676;26.348;2022-07-10T00:18:31;7.30;;;6.70;;
34565;SDS011;20803;42.676;26.348;2022-07-10T00:20:56;7.50;;;6.80;;
34565;SDS011;20803;42.676;26.348;2022-07-10T00:23:25;7.57;;;6.90;;
34565;SDS011;20803;42.676;26.348;2022-07-10T00:25:50;8.07;;;7.37;;
34565;SDS011;20803;42.676;26.348;2022-07-10T00:28:15;7.50;;;6.73;;
34565;SDS011;20803;42.676;26.348;2022-07-10T00:30:41;7.90;;;6.83;;
34565;SDS011;20803;42.676;26.348;2022-07-10T00:33:06;7.47;;;6.37;;
34565;SDS011;20803;42.676;26.348;2022-07-10T00:35:32;7.20;;;6.50;;
34565;SDS011;20803;42.676;26.348;2022-07-10T00:37:57;8.40;;;7.40;;
34565;SDS011;20803;42.676;26.348;2022-07-10T00:40:23;7.10;;;6.40;;
34565;SDS011;20803;42.676;26.348;2022-07-10T00:42:48;7.77;;;7.07;;
34565;SDS011;20803;42.676;26.348;2022-07-10T00:45:14;9.57;;;7.03;;
34565;SDS011;20803;42.676;26.348;2022-07-10T00:47:40;8.43;;;7.60;;
34565;SDS011;20803;42.676;26.348;2022-07-10T00:50:05;8.27;;;7.47;;
34565;SDS011;20803;42.676;26.348;2022-07-10T00:52:32;8.10;;;7.30;;
34565;SDS011;20803;42.676;26.348;2022-07-10T00:55:03;8.07;;;7.37;;
34565;SDS011;20803;42.676;26.348;2022-07-10T00:57:30;8.20;;;7.50;;
34565;SDS011;20803;42.676;26.348;2022-07-10T00:59:57;9.27;;;7.43;;
34565;SDS011;20803;42.676;26.348;2022-07-10T01:02:23;9.90;;;7.57;;
34565;SDS011;20803;42.676;26.348;2022-07-10T01:04:49;7.33;;;6.67;;
34565;SDS011;20803;42.676;26.348;2022-07-10T01:07:14;7.70;;;7.00;;
34565;SDS011;20803;42.676;26.348;2022-07-10T01:09:41;7.97;;;7.20;;
34565;SDS011;20803;42.676;26.348;2022-07-10T01:12:07;7.87;;;7.17;;
34565;SDS011;20803;42.676;26.348;2022-07-10T01:14:33;8.57;;;7.43;;
34565;SDS011;20803;42.676;26.348;2022-07-10T01:17:00;7.10;;;6.50;;
34565;SDS011;20803;42.676;26.348;2022-07-10T01:19:26;7.80;;;7.00;;
34565;SDS011;20803;42.676;26.348;2022-07-10T01:21:51;7.37;;;6.77;;
34565;SDS011;20803;42.676;26.348;2022-07-10T01:24:17;7.00;;;6.37;;
34565;SDS011;20803;42.676;26.348;2022-07-10T01:26:42;7.87;;;7.03;;
34565;SDS011;20803;42.676;26.348;2022-07-10T01:29:08;7.80;;;7.03;;
34565;SDS011;20803;42.676;26.348;2022-07-10T01:31:34;8.83;;;6.73;;
34565;SDS011;20803;42.676;26.348;2022-07-10T01:34:01;7.73;;;6.93;;
34565;SDS011;20803;42.676;26.348;2022-07-10T01:36:29;9.67;;;6.90;;
34565;SDS011;20803;42.676;26.348;2022-07-10T01:38:55;10.37;;;6.80;;
34565;SDS011;20803;42.676;26.348;2022-07-10T01:41:22;7.07;;;6.37;;
34565;SDS011;20803;42.676;26.348;2022-07-10T01:43:48;9.17;;;6.87;;
34565;SDS011;20803;42.676;26.348;2022-07-10T01:46:14;8.57;;;6.63;;
34565;SDS011;20803;42.676;26.348;2022-07-10T01:48:40;7.03;;;6.40;;
34565;SDS011;20803;42.676;26.348;2022-07-10T01:51:07;8.07;;;6.40;;
34565;SDS011;20803;42.676;26.348;2022-07-10T01:53:34;12.23;;;6.73;;
34565;SDS011;20803;42.676;26.348;2022-07-10T01:56:01;6.27;;;5.63;;
34565;SDS011;20803;42.676;26.348;2022-07-10T01:58:29;7.27;;;6.37;;
34565;SDS011;20803;42.676;26.348;2022-07-10T02:00:54;8.27;;;7.00;;
34565;SDS011;20803;42.676;26.348;2022-07-10T02:03:19;7.00;;;6.13;;
34565;SDS011;20803;42.676;26.348;2022-07-10T02:06:03;6.70;;;6.00;;
34565;SDS011;20803;42.676;26.348;2022-07-10T02:08:29;7.17;;;6.47;;
34565;SDS011;20803;42.676;26.348;2022-07-10T02:10:54;7.77;;;6.77;;
34565;SDS011;20803;42.676;26.348;2022-07-10T02:13:20;8.90;;;6.67;;
34565;SDS011;20803;42.676;26.348;2022-07-10T02:15:49;6.47;;;5.90;;
34565;SDS011;20803;42.676;26.348;2022-07-10T02:18:14;8.03;;;6.20;;
34565;SDS011;20803;42.676;26.348;2022-07-10T02:20:40;7.60;;;6.90;;
34565;SDS011;20803;42.676;26.348;2022-07-10T02:23:05;7.07;;;6.37;;
34565;SDS011;20803;42.676;26.348;2022-07-10T02:25:32;6.70;;;6.10;;
34565;SDS011;20803;42.676;26.348;2022-07-10T02:27:58;8.73;;;7.10;;
34565;SDS011;20803;42.676;26.348;2022-07-10T02:30:23;7.27;;;6.27;;
34565;SDS011;20803;42.676;26.348;2022-07-10T02:32:49;8.10;;;6.37;;
34565;SDS011;20803;42.676;26.348;2022-07-10T02:35:14;7.03;;;6.30;;
34565;SDS011;20803;42.676;26.348;2022-07-10T02:37:39;8.47;;;6.03;;
34565;SDS011;20803;42.676;26.348;2022-07-10T02:40:05;13.93;;;5.80;;
34565;SDS011;20803;42.676;26.348;2022-07-10T02:42:31;7.27;;;6.00;;
34565;SDS011;20803;42.676;26.348;2022-07-10T02:44:56;9.30;;;6.63;;
34565;SDS011;20803;42.676;26.348;2022-07-10T02:47:22;7.30;;;5.80;;
34565;SDS011;20803;42.676;26.348;2022-07-10T02:49:47;7.40;;;6.20;;
34565;SDS011;20803;42.676;26.348;2022-07-10T02:52:13;6.40;;;5.90;;
34565;SDS011;20803;42.676;26.348;2022-07-10T02:54:38;7.00;;;6.30;;
34565;SDS011;20803;42.676;26.348;2022-07-10T02:57:04;8.27;;;6.53;;
34565;SDS011;20803;42.676;26.348;2022-07-10T02:59:30;9.20;;;6.10;;
34565;SDS011;20803;42.676;26.348;2022-07-10T03:01:55;7.63;;;6.17;;
34565;SDS011;20803;42.676;26.348;2022-07-10T03:04:21;6.93;;;6.33;;
34565;SDS011;20803;42.676;26.348;2022-07-10T03:06:46;6.73;;;5.90;;
34565;SDS011;20803;42.676;26.348;2022-07-10T03:09:12;10.27;;;6.33;;
34565;SDS011;20803;42.676;26.348;2022-07-10T03:11:37;6.73;;;6.13;;
34565;SDS011;20803;42.676;26.348;2022-07-10T03:14:03;6.60;;;6.00;;
34565;SDS011;20803;42.676;26.348;2022-07-10T03:16:28;9.27;;;6.37;;
34565;SDS011;20803;42.676;26.348;2022-07-10T03:18:54;6.90;;;5.53;;
34565;SDS011;20803;42.676;26.348;2022-07-10T03:21:20;8.00;;;6.13;;
34565;SDS011;20803;42.676;26.348;2022-07-10T03:23:45;6.50;;;5.90;;
34565;SDS011;20803;42.676;26.348;2022-07-10T03:26:10;6.83;;;5.87;;
34565;SDS011;20803;42.676;26.348;2022-07-10T03:28:36;8.60;;;5.53;;
34565;SDS011;20803;42.676;26.348;2022-07-10T03:31:01;5.60;;;5.10;;
34565;SDS011;20803;42.676;26.348;2022-07-10T03:33:27;7.20;;;5.67;;
34565;SDS011;20803;42.676;26.348;2022-07-10T03:35:53;6.27;;;5.73;;
34565;SDS011;20803;42.676;26.348;2022-07-10T03:38:19;6.33;;;5.07;;
34565;SDS011;20803;42.676;26.348;2022-07-10T03:40:44;6.43;;;5.20;;
34565;SDS011;20803;42.676;26.348;2022-07-10T03:43:13;8.20;;;5.83;;
34565;SDS011;20803;42.676;26.348;2022-07-10T03:45:41;6.47;;;5.57;;
34565;SDS011;20803;42.676;26.348;2022-07-10T03:48:06;6.60;;;5.70;;
34565;SDS011;20803;42.676;26.348;2022-07-10T03:50:32;7.27;;;5.17;;
34565;SDS011;20803;42.676;26.348;2022-07-10T03:52:59;5.83;;;5.23;;
34565;SDS011;20803;42.676;26.348;2022-07-10T03:55:24;6.00;;;5.47;;
34565;SDS011;20803;42.676;26.348;2022-07-10T03:57:50;6.53;;;5.50;;
34565;SDS011;20803;42.676;26.348;2022-07-10T04:00:18;6.83;;;5.47;;
34565;SDS011;20803;42.676;26.348;2022-07-10T04:02:47;5.17;;;4.77;;
34565;SDS011;20803;42.676;26.348;2022-07-10T04:05:13;6.30;;;5.03;;
34565;SDS011;20803;42.676;26.348;2022-07-10T04:07:38;6.60;;;4.57;;
34565;SDS011;20803;42.676;26.348;2022-07-10T04:10:04;4.87;;;4.47;;
34565;SDS011;20803;42.676;26.348;2022-07-10T04:12:30;5.67;;;4.80;;
34565;SDS011;20803;42.676;26.348;2022-07-10T04:14:55;6.80;;;4.47;;
34565;SDS011;20803;42.676;26.348;2022-07-10T04:17:21;6.87;;;5.13;;
34565;SDS011;20803;42.676;26.348;2022-07-10T04:19:46;5.43;;;4.70;;
34565;SDS011;20803;42.676;26.348;2022-07-10T04:22:12;6.17;;;4.40;;
34565;SDS011;20803;42.676;26.348;2022-07-10T04:24:38;9.10;;;4.97;;
34565;SDS011;20803;42.676;26.348;2022-07-10T04:27:03;6.00;;;5.13;;
34565;SDS011;20803;42.676;26.348;2022-07-10T04:29:29;7.90;;;4.87;;
34565;SDS011;20803;42.676;26.348;2022-07-10T04:31:54;5.90;;;4.67;;
34565;SDS011;20803;42.676;26.348;2022-07-10T04:34:20;5.80;;;5.20;;
34565;SDS011;20803;42.676;26.348;2022-07-10T04:36:45;6.40;;;4.97;;
34565;SDS011;20803;42.676;26.348;2022-07-10T04:39:11;6.97;;;5.13;;
34565;SDS011;20803;42.676;26.348;2022-07-10T04:41:36;8.00;;;5.27;;
34565;SDS011;20803;42.676;26.348;2022-07-10T04:44:02;6.97;;;4.50;;
34565;SDS011;20803;42.676;26.348;2022-07-10T04:46:28;4.57;;;4.17;;
34565;SDS011;20803;42.676;26.348;2022-07-10T04:48:53;5.77;;;4.70;;
34565;SDS011;20803;42.676;26.348;2022-07-10T04:51:18;8.60;;;5.07;;
34565;SDS011;20803;42.676;26.348;2022-07-10T04:53:44;5.37;;;4.90;;
34565;SDS011;20803;42.676;26.348;2022-07-10T04:56:09;5.40;;;4.60;;
34565;SDS011;20803;42.676;26.348;2022-07-10T04:58:35;5.40;;;4.90;;
34565;SDS011;20803;42.676;26.348;2022-07-10T05:01:00;8.33;;;4.67;;
34565;SDS011;20803;42.676;26.348;2022-07-10T05:03:27;7.80;;;4.87;;
34565;SDS011;20803;42.676;26.348;2022-07-10T05:05:53;5.33;;;4.83;;
34565;SDS011;20803;42.676;26.348;2022-07-10T05:08:19;5.93;;;4.90;;
34565;SDS011;20803;42.676;26.348;2022-07-10T05:10:44;5.37;;;4.87;;
34565;SDS011;20803;42.676;26.348;2022-07-10T05:13:10;8.50;;;4.70;;
34565;SDS011;20803;42.676;26.348;2022-07-10T05:15:36;7.17;;;5.30;;
34565;SDS011;20803;42.676;26.348;2022-07-10T05:18:02;7.77;;;5.20;;
34565;SDS011;20803;42.676;26.348;2022-07-10T05:20:28;5.70;;;4.83;;
34565;SDS011;20803;42.676;26.348;2022-07-10T05:22:53;10.23;;;4.97;;
34565;SDS011;20803;42.676;26.348;2022-07-10T05:25:19;6.10;;;5.50;;
34565;SDS011;20803;42.676;26.348;2022-07-10T05:27:44;9.73;;;5.10;;
34565;SDS011;20803;42.676;26.348;2022-07-10T05:30:10;7.47;;;5.00;;
34565;SDS011;20803;42.676;26.348;2022-07-10T05:32:42;7.67;;;4.97;;
34565;SDS011;20803;42.676;26.348;2022-07-10T05:35:10;5.93;;;5.27;;
34565;SDS011;20803;42.676;26.348;2022-07-10T05:37:36;6.13;;;4.67;;
34565;SDS011;20803;42.676;26.348;2022-07-10T05:40:02;8.90;;;4.90;;
34565;SDS011;20803;42.676;26.348;2022-07-10T05:42:28;7.13;;;5.70;;
34565;SDS011;20803;42.676;26.348;2022-07-10T05:44:53;6.90;;;5.47;;
34565;SDS011;20803;42.676;26.348;2022-07-10T05:47:19;6.20;;;4.77;;
34565;SDS011;20803;42.676;26.348;2022-07-10T05:49:44;5.70;;;4.70;;
34565;SDS011;20803;42.676;26.348;2022-07-10T05:52:09;5.60;;;4.70;;
34565;SDS011;20803;42.676;26.348;2022-07-10T05:54:35;7.33;;;4.50;;
34565;SDS011;20803;42.676;26.348;2022-07-10T05:57:00;5.83;;;4.80;;
34565;SDS011;20803;42.676;26.348;2022-07-10T05:59:26;5.13;;;4.63;;
34565;SDS011;20803;42.676;26.348;2022-07-10T06:01:51;6.33;;;4.60;;
34565;SDS011;20803;42.676;26.348;2022-07-10T06:04:17;6.23;;;5.40;;
34565;SDS011;20803;42.676;26.348;2022-07-10T06:06:42;6.10;;;4.70;;
34565;SDS011;20803;42.676;26.348;2022-07-10T06:09:08;7.13;;;5.20;;
34565;SDS011;20803;42.676;26.348;2022-07-10T06:11:34;8.33;;;6.17;;
34565;SDS011;20803;42.676;26.348;2022-07-10T06:13:59;6.50;;;4.70;;
34565;SDS011;20803;42.676;26.348;2022-07-10T06:16:25;6.40;;;4.90;;
34565;SDS011;20803;42.676;26.348;2022-07-10T06:18:50;5.27;;;4.67;;
34565;SDS011;20803;42.676;26.348;2022-07-10T06:21:16;4.83;;;4.43;;
34565;SDS011;20803;42.676;26.348;2022-07-10T06:23:46;5.97;;;4.60;;
34565;SDS011;20803;42.676;26.348;2022-07-10T06:26:12;4.60;;;4.20;;
34565;SDS011;20803;42.676;26.348;2022-07-10T06:28:37;5.87;;;4.20;;
34565;SDS011;20803;42.676;26.348;2022-07-10T06:31:04;7.37;;;4.20;;
34565;SDS011;20803;42.676;26.348;2022-07-10T06:33:29;4.10;;;3.80;;
34565;SDS011;20803;42.676;26.348;2022-07-10T06:35:55;7.03;;;4.90;;
34565;SDS011;20803;42.676;26.348;2022-07-10T06:38:20;5.33;;;4.53;;
34565;SDS011;20803;42.676;26.348;2022-07-10T06:40:46;6.90;;;4.47;;
34565;SDS011;20803;42.676;26.348;2022-07-10T06:43:12;5.27;;;3.93;;
34565;SDS011;20803;42.676;26.348;2022-07-10T06:45:38;7.47;;;4.20;;
34565;SDS011;20803;42.676;26.348;2022-07-10T06:48:04;7.80;;;4.83;;
34565;SDS011;20803;42.676;26.348;2022-07-10T06:50:30;5.20;;;4.73;;
34565;SDS011;20803;42.676;26.348;2022-07-10T06:52:57;5.47;;;4.97;;
34565;SDS011;20803;42.676;26.348;2022-07-10T06:55:24;4.83;;;4.33;;
34565;SDS011;20803;42.676;26.348;2022-07-10T06:57:50;6.03;;;4.57;;
34565;SDS011;20803;42.676;26.348;2022-07-10T07:00:16;5.60;;;4.33;;
34565;SDS011;20803;42.676;26.348;2022-07-10T07:02:41;4.77;;;4.37;;
34565;SDS011;20803;42.676;26.348;2022-07-10T07:05:07;5.23;;;4.43;;
34565;SDS011;20803;42.676;26.348;2022-07-10T07:07:34;7.43;;;4.40;;
34565;SDS011;20803;42.676;26.348;2022-07-10T07:10:00;4.93;;;4.43;;
34565;SDS011;20803;42.676;26.348;2022-07-10T07:12:26;5.03;;;3.83;;
34565;SDS011;20803;42.676;26.348;2022-07-10T07:14:52;5.70;;;4.20;;
34565;SDS011;20803;42.676;26.348;2022-07-10T07:17:17;4.27;;;3.87;;
34565;SDS011;20803;42.676;26.348;2022-07-10T07:19:50;6.37;;;4.33;;
34565;SDS011;20803;42.676;26.348;2022-07-10T07:22:35;5.83;;;3.90;;
34565;SDS011;20803;42.676;26.348;2022-07-10T07:25:20;10.00;;;4.03;;
34565;SDS011;20803;42.676;26.348;2022-07-10T07:27:46;4.27;;;3.87;;
34565;SDS011;20803;42.676;26.348;2022-07-10T07:30:12;6.07;;;3.90;;
34565;SDS011;20803;42.676;26.348;2022-07-10T07:32:42;10.23;;;4.07;;
34565;SDS011;20803;42.676;26.348;2022-07-10T07:35:11;5.97;;;3.97;;
34565;SDS011;20803;42.676;26.348;2022-07-10T07:40:08;4.10;;;3.77;;
34565;SDS011;20803;42.676;26.348;2022-07-10T07:42:35;3.70;;;3.40;;
34565;SDS011;20803;42.676;26.348;2022-07-10T07:45:01;6.10;;;4.17;;
34565;SDS011;20803;42.676;26.348;2022-07-10T07:47:29;4.80;;;4.20;;
34565;SDS011;20803;42.676;26.348;2022-07-10T07:49:56;10.40;;;4.33;;
34565;SDS011;20803;42.676;26.348;2022-07-10T07:52:21;6.50;;;4.23;;
34565;SDS011;20803;42.676;26.348;2022-07-10T07:54:48;5.93;;;4.67;;
34565;SDS011;20803;42.676;26.348;2022-07-10T07:57:14;4.03;;;3.63;;
34565;SDS011;20803;42.676;26.348;2022-07-10T07:59:39;5.63;;;4.33;;
34565;SDS011;20803;42.676;26.348;2022-07-10T08:02:05;4.93;;;3.87;;
34565;SDS011;20803;42.676;26.348;2022-07-10T08:04:31;5.27;;;4.77;;
34565;SDS011;20803;42.676;26.348;2022-07-10T08:06:57;5.87;;;4.40;;
34565;SDS011;20803;42.676;26.348;2022-07-10T08:09:22;4.20;;;3.80;;
34565;SDS011;20803;42.676;26.348;2022-07-10T08:11:48;4.17;;;3.77;;
34565;SDS011;20803;42.676;26.348;2022-07-10T08:14:13;4.00;;;3.50;;
34565;SDS011;20803;42.676;26.348;2022-07-10T08:16:39;4.10;;;3.67;;
34565;SDS011;20803;42.676;26.348;2022-07-10T08:19:05;4.63;;;4.23;;
34565;SDS011;20803;42.676;26.348;2022-07-10T08:21:31;5.30;;;4.00;;
34565;SDS011;20803;42.676;26.348;2022-07-10T08:23:57;5.60;;;4.53;;
34565;SDS011;20803;42.676;26.348;2022-07-10T08:26:23;5.83;;;4.93;;
34565;SDS011;20803;42.676;26.348;2022-07-10T08:28:49;5.57;;;4.50;;
34565;SDS011;20803;42.676;26.348;2022-07-10T08:31:15;5.20;;;4.40;;
34565;SDS011;20803;42.676;26.348;2022-07-10T08:33:40;6.17;;;4.70;;
34565;SDS011;20803;42.676;26.348;2022-07-10T08:36:06;5.00;;;3.90;;
34565;SDS011;20803;42.676;26.348;2022-07-10T08:38:31;6.80;;;4.13;;
34565;SDS011;20803;42.676;26.348;2022-07-10T08:40:57;4.50;;;4.10;;
34565;SDS011;20803;42.676;26.348;2022-07-10T08:43:24;4.83;;;4.20;;
34565;SDS011;20803;42.676;26.348;2022-07-10T08:45:50;4.80;;;4.40;;
34565;SDS011;20803;42.676;26.348;2022-07-10T08:48:19;5.77;;;4.93;;
34565;SDS011;20803;42.676;26.348;2022-07-10T08:50:47;6.17;;;4.53;;
34565;SDS011;20803;42.676;26.348;2022-07-10T08:53:16;4.93;;;3.93;;
34565;SDS011;20803;42.676;26.348;2022-07-10T08:55:47;5.90;;;4.30;;
34565;SDS011;20803;42.676;26.348;2022-07-10T08:58:13;5.63;;;4.27;;
34565;SDS011;20803;42.676;26.348;2022-07-10T09:00:39;5.10;;;4.37;;
34565;SDS011;20803;42.676;26.348;2022-07-10T09:03:05;4.50;;;4.10;;
34565;SDS011;20803;42.676;26.348;2022-07-10T09:05:32;4.27;;;3.80;;
34565;SDS011;20803;42.676;26.348;2022-07-10T09:07:57;7.13;;;4.77;;
34565;SDS011;20803;42.676;26.348;2022-07-10T09:10:26;5.77;;;4.60;;
34565;SDS011;20803;42.676;26.348;2022-07-10T09:12:56;4.87;;;3.93;;
34565;SDS011;20803;42.676;26.348;2022-07-10T09:15:23;5.67;;;4.00;;
34565;SDS011;20803;42.676;26.348;2022-07-10T09:20:35;5.80;;;3.80;;
34565;SDS011;20803;42.676;26.348;2022-07-10T09:25:48;3.77;;;3.40;;
34565;SDS011;20803;42.676;26.348;2022-07-10T09:28:24;6.47;;;3.60;;
34565;SDS011;20803;42.676;26.348;2022-07-10T09:30:49;4.20;;;3.80;;
34565;SDS011;20803;42.676;26.348;2022-07-10T09:33:33;5.80;;;3.77;;
34565;SDS011;20803;42.676;26.348;2022-07-10T09:36:01;6.13;;;3.90;;
34565;SDS011;20803;42.676;26.348;2022-07-10T09:41:17;3.90;;;3.60;;
34565;SDS011;20803;42.676;26.348;2022-07-10T09:43:49;5.23;;;3.93;;
34565;SDS011;20803;42.676;26.348;2022-07-10T09:46:18;5.13;;;3.57;;
34565;SDS011;20803;42.676;26.348;2022-07-10T09:48:47;4.17;;;3.73;;
34565;SDS011;20803;42.676;26.348;2022-07-10T09:51:13;4.00;;;3.60;;
34565;SDS011;20803;42.676;26.348;2022-07-10T09:53:40;3.77;;;3.47;;
34565;SDS011;20803;42.676;26.348;2022-07-10T09:56:08;5.23;;;3.67;;
34565;SDS011;20803;42.676;26.348;2022-07-10T09:58:35;6.57;;;3.87;;
34565;SDS011;20803;42.676;26.348;2022-07-10T10:01:02;5.60;;;3.90;;
34565;SDS011;20803;42.676;26.348;2022-07-10T10:03:30;6.20;;;4.10;;
34565;SDS011;20803;42.676;26.348;2022-07-10T10:06:01;4.23;;;3.93;;
34565;SDS011;20803;42.676;26.348;2022-07-10T10:10:59;6.07;;;3.60;;
34565;SDS011;20803;42.676;26.348;2022-07-10T10:13:26;4.90;;;3.70;;
34565;SDS011;20803;42.676;26.348;2022-07-10T10:15:53;5.17;;;3.90;;
34565;SDS011;20803;42.676;26.348;2022-07-10T10:18:28;3.80;;;3.50;;
34565;SDS011;20803;42.676;26.348;2022-07-10T10:20:55;4.57;;;4.00;;
34565;SDS011;20803;42.676;26.348;2022-07-10T10:23:24;3.90;;;3.60;;
34565;SDS011;20803;42.676;26.348;2022-07-10T10:25:52;6.33;;;4.30;;
34565;SDS011;20803;42.676;26.348;2022-07-10T10:28:19;5.37;;;3.87;;
34565;SDS011;20803;42.676;26.348;2022-07-10T10:30:48;5.10;;;3.93;;
34565;SDS011;20803;42.676;26.348;2022-07-10T10:35:57;8.33;;;4.60;;
34565;SDS011;20803;42.676;26.348;2022-07-10T10:38:23;4.20;;;3.80;;
34565;SDS011;20803;42.676;26.348;2022-07-10T10:40:49;4.40;;;4.00;;
34565;SDS011;20803;42.676;26.348;2022-07-10T10:43:18;4.00;;;3.70;;
34565;SDS011;20803;42.676;26.348;2022-07-10T10:45:45;4.53;;;4.13;;
34565;SDS011;20803;42.676;26.348;2022-07-10T10:48:15;4.57;;;4.17;;
34565;SDS011;20803;42.676;26.348;2022-07-10T10:50:52;9.40;;;4.57;;
34565;SDS011;20803;42.676;26.348;2022-07-10T10:53:22;4.03;;;3.60;;
34565;SDS011;20803;42.676;26.348;2022-07-10T10:58:26;5.23;;;4.73;;
34565;SDS011;20803;42.676;26.348;2022-07-10T11:01:06;6.23;;;4.50;;
34565;SDS011;20803;42.676;26.348;2022-07-10T11:06:45;4.10;;;3.70;;
34565;SDS011;20803;42.676;26.348;2022-07-10T11:09:31;5.00;;;3.80;;
34565;SDS011;20803;42.676;26.348;2022-07-10T11:14:37;6.40;;;4.13;;
34565;SDS011;20803;42.676;26.348;2022-07-10T11:17:12;5.10;;;4.10;;
34565;SDS011;20803;42.676;26.348;2022-07-10T11:19:38;6.60;;;4.33;;
34565;SDS011;20803;42.676;26.348;2022-07-10T11:29:59;5.37;;;4.37;;
34565;SDS011;20803;42.676;26.348;2022-07-10T11:32:25;3.67;;;3.37;;
34565;SDS011;20803;42.676;26.348;2022-07-10T11:34:51;4.70;;;3.77;;
34565;SDS011;20803;42.676;26.348;2022-07-10T11:37:17;5.47;;;4.40;;
34565;SDS011;20803;42.676;26.348;2022-07-10T11:39:42;5.00;;;4.40;;
34565;SDS011;20803;42.676;26.348;2022-07-10T11:42:08;4.93;;;4.20;;
34565;SDS011;20803;42.676;26.348;2022-07-10T11:44:34;5.83;;;4.40;;
34565;SDS011;20803;42.676;26.348;2022-07-10T11:47:00;4.30;;;3.90;;
34565;SDS011;20803;42.676;26.348;2022-07-10T11:49:27;4.53;;;4.10;;
34565;SDS011;20803;42.676;26.348;2022-07-10T11:51:54;4.57;;;4.17;;
34565;SDS011;20803;42.676;26.348;2022-07-10T11:54:21;5.90;;;4.23;;
34565;SDS011;20803;42.676;26.348;2022-07-10T11:56:50;6.87;;;4.13;;
34565;SDS011;20803;42.676;26.348;2022-07-10T11:59:27;4.83;;;3.97;;
34565;SDS011;20803;42.676;26.348;2022-07-10T12:01:54;5.83;;;4.77;;
34565;SDS011;20803;42.676;26.348;2022-07-10T12:04:21;4.50;;;4.10;;
34565;SDS011;20803;42.676;26.348;2022-07-10T12:06:49;6.43;;;4.37;;
34565;SDS011;20803;42.676;26.348;2022-07-10T12:09:17;6.80;;;4.40;;
34565;SDS011;20803;42.676;26.348;2022-07-10T12:11:57;5.77;;;4.10;;
34565;SDS011;20803;42.676;26.348;2022-07-10T12:14:27;6.13;;;3.80;;
34565;SDS011;20803;42.676;26.348;2022-07-10T12:16:54;3.70;;;3.40;;
34565;SDS011;20803;42.676;26.348;2022-07-10T12:19:24;4.30;;;3.97;;
34565;SDS011;20803;42.676;26.348;2022-07-10T12:22:04;4.30;;;4.00;;
34565;SDS011;20803;42.676;26.348;2022-07-10T12:24:30;4.60;;;4.17;;
34565;SDS011;20803;42.676;26.348;2022-07-10T12:26:55;4.60;;;4.20;;
34565;SDS011;20803;42.676;26.348;2022-07-10T12:29:22;4.60;;;4.20;;
34565;SDS011;20803;42.676;26.348;2022-07-10T12:31:51;5.33;;;4.03;;
34565;SDS011;20803;42.676;26.348;2022-07-10T12:34:18;4.60;;;4.20;;
34565;SDS011;20803;42.676;26.348;2022-07-10T12:39:20;6.47;;;4.33;;
34565;SDS011;20803;42.676;26.348;2022-07-10T12:47:03;5.03;;;4.47;;
34565;SDS011;20803;42.676;26.348;2022-07-10T12:50:01;6.97;;;4.47;;
34565;SDS011;20803;42.676;26.348;2022-07-10T12:52:36;5.00;;;4.23;;
34565;SDS011;20803;42.676;26.348;2022-07-10T12:57:48;4.50;;;4.07;;
34565;SDS011;20803;42.676;26.348;2022-07-10T13:00:16;4.50;;;4.10;;
34565;SDS011;20803;42.676;26.348;2022-07-10T13:02:44;5.53;;;4.57;;
34565;SDS011;20803;42.676;26.348;2022-07-10T13:05:10;5.07;;;4.17;;
34565;SDS011;20803;42.676;26.348;2022-07-10T13:07:36;4.50;;;4.10;;
34565;SDS011;20803;42.676;26.348;2022-07-10T13:10:06;4.83;;;4.33;;
34565;SDS011;20803;42.676;26.348;2022-07-10T13:12:33;6.17;;;4.70;;
34565;SDS011;20803;42.676;26.348;2022-07-10T13:14:59;5.27;;;4.77;;
34565;SDS011;20803;42.676;26.348;2022-07-10T13:17:25;6.23;;;5.63;;
34565;SDS011;20803;42.676;26.348;2022-07-10T13:19:51;4.90;;;4.40;;
34565;SDS011;20803;42.676;26.348;2022-07-10T13:22:17;6.17;;;4.50;;
34565;SDS011;20803;42.676;26.348;2022-07-10T13:24:45;6.13;;;4.60;;
34565;SDS011;20803;42.676;26.348;2022-07-10T13:27:13;6.13;;;4.57;;
34565;SDS011;20803;42.676;26.348;2022-07-10T13:29:38;5.07;;;4.47;;
34565;SDS011;20803;42.676;26.348;2022-07-10T13:32:04;5.17;;;4.70;;
34565;SDS011;20803;42.676;26.348;2022-07-10T13:34:30;5.33;;;4.20;;
34565;SDS011;20803;42.676;26.348;2022-07-10T13:36:55;4.97;;;4.57;;
34565;SDS011;20803;42.676;26.348;2022-07-10T13:39:21;5.77;;;4.40;;
34565;SDS011;20803;42.676;26.348;2022-07-10T13:41:47;7.53;;;5.03;;
34565;SDS011;20803;42.676;26.348;2022-07-10T13:44:12;4.80;;;4.40;;
34565;SDS011;20803;42.676;26.348;2022-07-10T13:46:38;6.27;;;4.90;;
34565;SDS011;20803;42.676;26.348;2022-07-10T13:49:05;4.70;;;4.30;;
34565;SDS011;20803;42.676;26.348;2022-07-10T13:51:31;5.30;;;4.47;;
34565;SDS011;20803;42.676;26.348;2022-07-10T13:53:56;4.63;;;4.23;;
34565;SDS011;20803;42.676;26.348;2022-07-10T13:56:22;5.00;;;4.60;;
34565;SDS011;20803;42.676;26.348;2022-07-10T13:58:48;5.10;;;4.30;;
34565;SDS011;20803;42.676;26.348;2022-07-10T14:01:14;6.73;;;4.27;;
34565;SDS011;20803;42.676;26.348;2022-07-10T14:03:39;4.77;;;4.20;;
34565;SDS011;20803;42.676;26.348;2022-07-10T14:06:05;4.40;;;4.00;;
34565;SDS011;20803;42.676;26.348;2022-07-10T14:08:30;5.07;;;4.20;;
34565;SDS011;20803;42.676;26.348;2022-07-10T14:10:56;6.17;;;4.60;;
34565;SDS011;20803;42.676;26.348;2022-07-10T14:13:21;4.90;;;4.07;;
34565;SDS011;20803;42.676;26.348;2022-07-10T14:15:47;6.37;;;4.40;;
34565;SDS011;20803;42.676;26.348;2022-07-10T14:18:13;6.47;;;4.20;;
34565;SDS011;20803;42.676;26.348;2022-07-10T14:20:38;4.97;;;4.13;;
34565;SDS011;20803;42.676;26.348;2022-07-10T14:23:23;5.83;;;5.20;;
34565;SDS011;20803;42.676;26.348;2022-07-10T14:25:48;4.93;;;4.47;;
34565;SDS011;20803;42.676;26.348;2022-07-10T14:28:14;7.67;;;4.70;;
34565;SDS011;20803;42.676;26.348;2022-07-10T14:30:40;5.20;;;4.80;;
34565;SDS011;20803;42.676;26.348;2022-07-10T14:33:05;6.10;;;5.50;;
34565;SDS011;20803;42.676;26.348;2022-07-10T14:35:31;4.30;;;3.90;;
34565;SDS011;20803;42.676;26.348;2022-07-10T14:37:56;7.37;;;5.03;;
34565;SDS011;20803;42.676;26.348;2022-07-10T14:40:22;6.37;;;4.47;;
34565;SDS011;20803;42.676;26.348;2022-07-10T14:42:47;4.60;;;4.20;;
34565;SDS011;20803;42.676;26.348;2022-07-10T14:45:13;6.43;;;4.70;;
34565;SDS011;20803;42.676;26.348;2022-07-10T14:47:38;7.13;;;5.00;;
34565;SDS011;20803;42.676;26.348;2022-07-10T14:50:04;5.37;;;4.87;;
34565;SDS011;20803;42.676;26.348;2022-07-10T14:52:30;8.20;;;4.40;;
34565;SDS011;20803;42.676;26.348;2022-07-10T14:54:56;6.33;;;5.00;;
34565;SDS011;20803;42.676;26.348;2022-07-10T14:57:22;10.17;;;4.87;;
34565;SDS011;20803;42.676;26.348;2022-07-10T14:59:47;7.97;;;4.70;;
34565;SDS011;20803;42.676;26.348;2022-07-10T15:02:13;5.50;;;4.23;;
34565;SDS011;20803;42.676;26.348;2022-07-10T15:04:38;8.20;;;3.90;;
34565;SDS011;20803;42.676;26.348;2022-07-10T15:07:04;4.13;;;3.73;;
34565;SDS011;20803;42.676;26.348;2022-07-10T15:09:29;4.13;;;3.73;;
34565;SDS011;20803;42.676;26.348;2022-07-10T15:11:55;4.20;;;3.80;;
34565;SDS011;20803;42.676;26.348;2022-07-10T15:14:21;4.03;;;3.53;;